Time;durP1;ratioP1;P1;durP2;ratioP2;P2;SDS_P1;SDS_P2;PMS_P1;PMS_P2;Temp;Humidity;BMP_temperature;BMP_pressure;BME280_temperature;BME280_humidity;BME280_pressure;Samples;Min_cycle;Max_cycle;Signal;HPM_P1;HPM_P2
2022/09/11 00:00:03;;;;;;;35.80;21.10;;;17.60;99.90;;;;;;5117040;28;20051;-73
2022/09/11 00:02:40;;;;;;;42.80;24.00;;;17.60;99.90;;;;;;5117441;28;20051;-74
2022/09/11 00:05:09;;;;;;;47.83;26.98;;;17.60;99.90;;;;;;5116831;28;20039;-74
2022/09/11 00:07:36;;;;;;;45.92;27.02;;;17.60;99.90;;;;;;5117200;28;20039;-74
2022/09/11 00:10:04;;;;;;;235.52;35.63;;;17.60;99.90;;;;;;5116740;28;20123;-79
2022/09/11 00:12:33;;;;;;;65.80;29.70;;;17.60;99.90;;;;;;5115139;28;20556;-74
2022/09/11 00:15:00;;;;;;;47.80;27.80;;;17.60;99.90;;;;;;5097953;28;20046;-73
2022/09/11 00:17:27;;;;;;;49.25;28.33;;;17.60;99.90;;;;;;5112644;28;20043;-74
2022/09/11 00:19:55;;;;;;;39.85;26.95;;;17.60;99.90;;;;;;5116981;27;20395;-73
2022/09/11 00:22:22;;;;;;;54.83;26.83;;;17.70;99.90;;;;;;5116669;28;20047;-73
2022/09/11 00:24:50;;;;;;;42.80;26.70;;;17.70;99.90;;;;;;5112677;28;20512;-73
2022/09/11 00:27:17;;;;;;;43.67;26.00;;;17.70;99.90;;;;;;5116692;28;20451;-74
2022/09/11 00:29:46;;;;;;;43.35;28.25;;;17.70;99.90;;;;;;5116842;28;20048;-74
2022/09/11 00:32:14;;;;;;;50.42;30.02;;;17.70;99.90;;;;;;5116341;28;20039;-74
2022/09/11 00:34:42;;;;;;;47.13;30.05;;;17.70;99.90;;;;;;5115124;28;20079;-74
2022/09/11 00:37:09;;;;;;;55.80;32.22;;;17.60;99.90;;;;;;5108069;28;20498;-74
2022/09/11 00:39:36;;;;;;;51.00;30.73;;;17.60;99.90;;;;;;5106094;28;20040;-74
2022/09/11 00:42:05;;;;;;;53.47;31.40;;;17.70;99.90;;;;;;5077796;28;20048;-74
2022/09/11 00:45:00;;;;;;;78.50;30.33;;;17.70;99.90;;;;;;5095885;28;20055;-74
2022/09/11 00:47:31;;;;;;;57.95;29.85;;;17.70;99.90;;;;;;5078352;28;20048;-74
2022/09/11 00:50:08;;;;;;;64.75;29.50;;;17.70;99.90;;;;;;5095862;28;20051;-74
2022/09/11 00:52:41;;;;;;;54.55;30.38;;;17.70;99.90;;;;;;5095614;28;20064;-74
2022/09/11 00:55:11;;;;;;;123.72;28.50;;;17.70;99.90;;;;;;5084962;28;20051;-73
2022/09/11 00:57:42;;;;;;;67.50;29.50;;;17.70;99.90;;;;;;5104328;28;20059;-73
2022/09/11 01:00:13;;;;;;;53.85;29.70;;;17.70;99.90;;;;;;5112576;28;20510;-74
2022/09/11 01:02:43;;;;;;;74.65;28.55;;;17.70;99.90;;;;;;5114875;28;20044;-73
2022/09/11 01:05:11;;;;;;;81.00;28.35;;;17.70;99.90;;;;;;5115866;28;20059;-73
2022/09/11 01:07:41;;;;;;;63.75;28.77;;;17.60;99.90;;;;;;5116320;28;20046;-74
2022/09/11 01:10:10;;;;;;;107.55;27.85;;;17.60;99.90;;;;;;5116048;27;20532;-74
2022/09/11 01:12:52;;;;;;;84.35;26.60;;;17.60;99.90;;;;;;5103363;28;20037;-74
2022/09/11 01:15:24;;;;;;;57.78;30.25;;;17.50;99.90;;;;;;5077307;28;20048;-74
2022/09/11 01:18:00;;;;;;;55.78;27.58;;;17.50;99.90;;;;;;5076913;28;20550;-74
2022/09/11 01:20:37;;;;;;;62.80;33.90;;;17.50;99.90;;;;;;5078173;28;20039;-74
2022/09/11 01:23:36;;;;;;;39.63;22.40;;;17.50;99.90;;;;;;5077064;28;20454;-74
2022/09/11 01:26:39;;;;;;;35.58;19.30;;;17.50;99.90;;;;;;5076980;28;20051;-74
2022/09/11 01:29:14;;;;;;;36.42;19.20;;;17.30;99.90;;;;;;5094299;28;20056;-75
2022/09/11 01:31:48;;;;;;;44.20;21.05;;;17.30;99.90;;;;;;5107094;28;20594;-73
2022/09/11 01:34:24;;;;;;;38.10;20.13;;;17.30;99.90;;;;;;5113868;28;20108;-76
2022/09/11 01:36:55;;;;;;;41.75;21.42;;;17.30;99.90;;;;;;5078240;28;20043;-74
2022/09/11 01:39:29;;;;;;;42.35;22.00;;;17.30;99.90;;;;;;5095255;28;20040;-74
2022/09/11 01:42:02;;;;;;;47.08;22.15;;;17.30;99.90;;;;;;5076976;28;20040;-74
2022/09/11 01:44:35;;;;;;;43.65;20.88;;;17.40;99.90;;;;;;5075873;28;20093;-74
2022/09/11 01:47:08;;;;;;;45.80;20.38;;;17.40;99.90;;;;;;5076892;28;20102;-75
2022/09/11 01:49:40;;;;;;;43.63;22.27;;;17.50;99.90;;;;;;5095524;28;20050;-74
2022/09/11 01:52:12;;;;;;;43.38;20.60;;;17.50;99.90;;;;;;5096765;28;20085;-73
2022/09/11 01:54:45;;;;;;;42.67;20.02;;;17.50;99.90;;;;;;5114470;28;20473;-73
2022/09/11 01:57:20;;;;;;;90.32;26.52;;;17.50;99.90;;;;;;5094681;28;20138;-75
2022/09/11 01:59:56;;;;;;;58.42;28.48;;;17.50;99.90;;;;;;5076529;28;20051;-75
2022/09/11 02:02:29;;;;;;;63.20;29.50;;;17.50;99.90;;;;;;5094161;28;20449;-74
2022/09/11 02:05:02;;;;;;;54.58;25.17;;;17.40;99.90;;;;;;5076116;28;20523;-75
2022/09/11 02:07:34;;;;;;;60.28;28.23;;;17.50;99.90;;;;;;5081344;28;20035;-73
2022/09/11 02:10:07;;;;;;;59.00;28.98;;;17.50;99.90;;;;;;5096467;28;20598;-73
2022/09/11 02:12:47;;;;;;;60.38;28.13;;;17.60;99.90;;;;;;5096136;28;20511;-73
2022/09/11 02:15:17;;;;;;;55.75;27.27;;;17.60;99.90;;;;;;5096477;28;20050;-73
2022/09/11 02:17:51;;;;;;;54.53;26.80;;;17.50;99.90;;;;;;5096058;28;20055;-74
2022/09/11 02:20:20;;;;;;;58.50;26.80;;;17.60;99.90;;;;;;5112792;28;20122;-74
2022/09/11 02:22:48;;;;;;;52.70;25.13;;;17.60;99.90;;;;;;5093915;28;20067;-74
2022/09/11 02:25:16;;;;;;;49.88;25.15;;;17.60;99.90;;;;;;5112725;28;20436;-74
2022/09/11 02:27:46;;;;;;;48.65;23.88;;;17.50;99.90;;;;;;5104055;28;20046;-74
2022/09/11 02:30:14;;;;;;;50.72;24.65;;;17.50;99.90;;;;;;5110645;28;20564;-74
2022/09/11 02:32:44;;;;;;;44.78;23.30;;;17.50;99.90;;;;;;5114003;28;20032;-74
2022/09/11 02:35:12;;;;;;;35.45;20.42;;;17.50;99.90;;;;;;5113550;28;20066;-74
2022/09/11 02:37:50;;;;;;;28.83;18.58;;;17.50;99.90;;;;;;5095949;28;20048;-74
2022/09/11 02:40:27;;;;;;;28.88;18.25;;;17.40;99.90;;;;;;5114006;28;20114;-74
2022/09/11 02:43:18;;;;;;;31.17;18.45;;;17.40;99.90;;;;;;5095772;28;20048;-74
2022/09/11 02:45:53;;;;;;;47.15;21.48;;;17.40;99.90;;;;;;5096923;28;20044;-74
2022/09/11 02:48:44;;;;;;;93.60;29.60;;;17.40;99.90;;;;;;5093504;28;20044;-74
2022/09/11 02:51:20;;;;;;;188.75;45.22;;;17.50;99.90;;;;;;5093209;28;20047;-74
2022/09/11 02:53:54;;;;;;;228.18;55.88;;;17.40;99.90;;;;;;5100784;28;20052;-73
2022/09/11 02:56:28;;;;;;;230.25;54.90;;;17.40;99.90;;;;;;5096292;28;20092;-73
2022/09/11 02:59:00;;;;;;;229.35;56.47;;;17.40;99.90;;;;;;5098064;28;20040;-73
2022/09/11 03:01:30;;;;;;;214.02;58.40;;;17.40;99.90;;;;;;5090340;28;20125;-74
2022/09/11 03:04:00;;;;;;;213.60;54.38;;;17.30;99.90;;;;;;5095575;28;20130;-73
2022/09/11 03:06:28;;;;;;;186.68;52.60;;;17.30;99.90;;;;;;5095559;28;20489;-73
2022/09/11 03:08:55;;;;;;;195.68;53.65;;;17.30;99.90;;;;;;5113780;28;20051;-74
2022/09/11 03:11:23;;;;;;;191.88;57.88;;;17.40;99.90;;;;;;5104118;28;20050;-74
2022/09/11 03:13:50;;;;;;;186.10;56.45;;;17.30;99.90;;;;;;5091623;28;20047;-74
2022/09/11 03:16:19;;;;;;;203.55;56.05;;;17.40;99.90;;;;;;5075498;28;20052;-74
2022/09/11 03:18:47;;;;;;;211.48;57.28;;;17.40;99.90;;;;;;5092062;28;20062;-73
2022/09/11 03:21:16;;;;;;;235.55;57.33;;;17.40;99.90;;;;;;5076624;28;20072;-73
2022/09/11 03:23:43;;;;;;;206.70;54.70;;;17.30;99.90;;;;;;5093229;28;20513;-73
2022/09/11 03:26:11;;;;;;;184.57;47.80;;;17.30;99.90;;;;;;5088004;28;20491;-74
2022/09/11 03:28:38;;;;;;;185.48;48.92;;;17.40;99.90;;;;;;5114077;28;20052;-74
2022/09/11 03:31:08;;;;;;;179.00;47.42;;;17.30;99.90;;;;;;5094442;28;20079;-74
2022/09/11 03:33:36;;;;;;;182.55;47.40;;;17.40;99.90;;;;;;5095543;28;20081;-74
2022/09/11 03:36:04;;;;;;;174.77;46.05;;;17.40;99.90;;;;;;5095825;28;20086;-74
2022/09/11 03:38:32;;;;;;;192.02;50.30;;;17.40;99.90;;;;;;5114256;28;20418;-74
2022/09/11 03:41:00;;;;;;;179.95;51.25;;;17.40;99.90;;;;;;5091448;28;20145;-74
2022/09/11 03:43:27;;;;;;;179.10;52.15;;;17.40;99.90;;;;;;5075070;28;20089;-74
2022/09/11 03:45:55;;;;;;;183.80;47.78;;;17.40;99.90;;;;;;5075387;28;20048;-74
2022/09/11 03:48:24;;;;;;;160.23;47.10;;;17.40;99.90;;;;;;5075367;28;20564;-74
2022/09/11 03:50:51;;;;;;;150.38;44.67;;;17.30;99.90;;;;;;5094086;28;20142;-74
2022/09/11 03:53:18;;;;;;;148.70;44.78;;;17.30;99.90;;;;;;5094422;28;20402;-74
2022/09/11 03:55:48;;;;;;;150.90;43.85;;;17.20;99.90;;;;;;5095620;28;20055;-73
2022/09/11 03:58:17;;;;;;;151.68;45.13;;;17.10;99.90;;;;;;5084706;28;20138;-73
2022/09/11 04:00:46;;;;;;;153.70;45.85;;;17.10;99.90;;;;;;5091969;28;20101;-73
2022/09/11 04:03:16;;;;;;;170.02;45.85;;;17.10;99.90;;;;;;5094421;28;20039;-73
2022/09/11 04:05:57;;;;;;;164.25;47.03;;;17.00;99.90;;;;;;5095086;28;20039;-74
2022/09/11 04:08:24;;;;;;;176.13;48.88;;;17.00;99.90;;;;;;5114606;28;20104;-73
2022/09/11 04:11:01;;;;;;;171.82;48.13;;;17.00;99.90;;;;;;5079424;28;20044;-73
2022/09/11 04:13:30;;;;;;;152.40;47.15;;;17.00;99.90;;;;;;5078059;28;20064;-73
2022/09/11 04:16:02;;;;;;;154.68;48.22;;;17.00;99.90;;;;;;5078174;28;20046;-73
2022/09/11 04:18:31;;;;;;;157.90;46.05;;;17.00;99.90;;;;;;5077792;28;20075;-73
2022/09/11 04:20:58;;;;;;;167.73;45.92;;;16.90;99.90;;;;;;5095993;28;20040;-73
2022/09/11 04:23:25;;;;;;;158.60;45.70;;;16.90;99.90;;;;;;5098196;28;20035;-73
2022/09/11 04:25:54;;;;;;;158.25;45.90;;;16.90;99.90;;;;;;5098647;28;20082;-73
2022/09/11 04:28:22;;;;;;;142.15;45.75;;;16.90;99.90;;;;;;5098415;28;20043;-73
2022/09/11 04:30:50;;;;;;;144.50;46.17;;;16.80;99.90;;;;;;5096547;28;20047;-74
2022/09/11 04:33:18;;;;;;;169.70;48.13;;;16.80;99.90;;;;;;5098265;28;20491;-74
2022/09/11 04:35:46;;;;;;;150.80;45.78;;;16.80;99.90;;;;;;5098543;28;20067;-73
2022/09/11 04:38:14;;;;;;;157.88;45.80;;;16.70;99.90;;;;;;5098926;28;20071;-73
2022/09/11 04:40:42;;;;;;;149.52;42.75;;;16.60;99.90;;;;;;5083667;28;20070;-73
2022/09/11 04:43:10;;;;;;;69.93;26.95;;;16.60;99.90;;;;;;5079893;28;20040;-73
2022/09/11 04:45:40;;;;;;;51.50;20.50;;;16.50;99.90;;;;;;5080611;28;20201;-73
2022/09/11 04:48:09;;;;;;;44.63;16.95;;;16.40;99.90;;;;;;5084655;28;20524;-73
2022/09/11 04:50:36;;;;;;;33.00;13.80;;;16.30;99.90;;;;;;5101189;28;20043;-74
2022/09/11 04:53:15;;;;;;;29.08;14.00;;;16.30;99.90;;;;;;5100954;28;20051;-74
2022/09/11 04:55:43;;;;;;;32.33;13.30;;;16.30;99.90;;;;;;5100777;28;20569;-74
2022/09/11 04:58:10;;;;;;;29.50;13.25;;;16.40;99.90;;;;;;5088214;28;20047;-75
2022/09/11 05:00:39;;;;;;;22.50;11.02;;;16.40;99.90;;;;;;5077317;28;20048;-74
2022/09/11 05:03:07;;;;;;;28.55;12.80;;;16.40;99.90;;;;;;5077164;28;20126;-75
2022/09/11 05:05:34;;;;;;;34.45;13.32;;;16.50;99.90;;;;;;5077553;28;20060;-75
2022/09/11 05:08:03;;;;;;;31.80;13.93;;;16.50;99.90;;;;;;5083869;28;20050;-74
2022/09/11 05:10:30;;;;;;;26.15;12.20;;;16.60;99.90;;;;;;5097402;28;20085;-75
2022/09/11 05:12:58;;;;;;;24.90;11.90;;;16.60;99.90;;;;;;5096935;28;20414;-74
2022/09/11 05:15:25;;;;;;;34.28;11.23;;;16.70;99.90;;;;;;5097441;28;20047;-73
2022/09/11 05:17:54;;;;;;;28.70;9.82;;;16.80;99.90;;;;;;5091641;28;20051;-73
2022/09/11 05:20:21;;;;;;;18.20;8.68;;;16.90;99.90;;;;;;5076609;28;20039;-74
2022/09/11 05:22:49;;;;;;;20.13;9.20;;;17.00;99.90;;;;;;5114662;28;20047;-73
2022/09/11 05:25:17;;;;;;;20.27;6.88;;;17.10;99.90;;;;;;5097197;28;20051;-73
2022/09/11 05:27:45;;;;;;;16.65;6.68;;;17.10;99.90;;;;;;5096530;28;20449;-74
2022/09/11 05:30:13;;;;;;;13.23;5.65;;;17.30;99.90;;;;;;5114972;28;20113;-73
2022/09/11 05:32:40;;;;;;;11.68;5.35;;;17.30;99.90;;;;;;5096244;28;20510;-74
2022/09/11 05:35:09;;;;;;;9.52;4.95;;;17.40;99.90;;;;;;5096723;28;20097;-71
2022/09/11 05:37:37;;;;;;;21.65;6.00;;;17.30;99.90;;;;;;5080116;28;20125;-73
2022/09/11 05:40:05;;;;;;;12.20;5.28;;;17.30;99.90;;;;;;5114987;28;20502;-73
2022/09/11 05:42:33;;;;;;;10.25;5.25;;;17.30;99.90;;;;;;5092693;28;20047;-73
2022/09/11 05:45:01;;;;;;;14.18;5.25;;;17.40;99.90;;;;;;5094566;28;20043;-73
2022/09/11 05:47:29;;;;;;;11.98;4.85;;;17.50;99.90;;;;;;5084368;28;20084;-73
2022/09/11 05:49:56;;;;;;;15.13;5.50;;;17.60;99.90;;;;;;5103547;27;20416;-73
2022/09/11 05:52:25;;;;;;;15.80;5.57;;;17.70;99.90;;;;;;5080871;28;20133;-74
2022/09/11 05:54:53;;;;;;;10.15;6.15;;;17.80;99.90;;;;;;5075661;28;20071;-72
2022/09/11 05:57:20;;;;;;;17.05;5.95;;;17.80;99.90;;;;;;5077346;28;20059;-72
2022/09/11 05:59:48;;;;;;;10.18;5.22;;;17.80;99.90;;;;;;5076016;28;20450;-72
2022/09/11 06:02:15;;;;;;;17.30;5.97;;;17.70;99.90;;;;;;5075720;28;20044;-73
2022/09/11 06:04:49;;;;;;;16.60;5.70;;;17.70;99.90;;;;;;5087745;28;20051;-72
2022/09/11 06:07:18;;;;;;;13.85;6.05;;;17.80;99.90;;;;;;5094510;28;20051;-73
2022/09/11 06:09:50;;;;;;;21.73;7.32;;;17.80;99.90;;;;;;5079554;28;20093;-73
2022/09/11 06:12:17;;;;;;;19.08;8.57;;;18.00;99.90;;;;;;5090073;28;20055;-73
2022/09/11 06:14:45;;;;;;;12.98;6.30;;;18.00;99.90;;;;;;5090990;28;20149;-72
2022/09/11 06:17:13;;;;;;;18.88;7.63;;;18.20;99.90;;;;;;5103010;28;20498;-73
2022/09/11 06:19:41;;;;;;;15.93;7.43;;;18.30;99.90;;;;;;5109399;28;20378;-73
2022/09/11 06:22:09;;;;;;;32.60;13.75;;;18.40;99.90;;;;;;5123927;27;20110;-73
2022/09/11 06:24:41;;;;;;;39.10;15.05;;;18.40;99.90;;;;;;5118435;28;20043;-73
2022/09/11 06:27:10;;;;;;;53.38;18.70;;;18.40;99.90;;;;;;5112981;28;20044;-73
2022/09/11 06:29:42;;;;;;;49.75;18.02;;;18.50;99.90;;;;;;5105199;28;20093;-73
2022/09/11 06:32:10;;;;;;;56.42;19.55;;;18.60;99.90;;;;;;5118964;28;20043;-73
2022/09/11 06:34:39;;;;;;;54.20;20.92;;;18.70;99.90;;;;;;5107027;28;20058;-73
2022/09/11 06:37:10;;;;;;;64.38;22.42;;;18.90;99.90;;;;;;5103354;28;20044;-73
2022/09/11 06:39:38;;;;;;;48.22;19.70;;;19.10;99.90;;;;;;5085904;28;20463;-73
2022/09/11 06:42:07;;;;;;;56.95;20.20;;;19.10;99.90;;;;;;5094896;28;20039;-74
2022/09/11 06:44:40;;;;;;;50.58;21.10;;;19.20;99.90;;;;;;5092638;28;20045;-74
2022/09/11 06:47:07;;;;;;;52.65;20.15;;;19.40;99.90;;;;;;5094886;28;20043;-74
2022/09/11 06:49:36;;;;;;;50.25;20.15;;;19.40;99.90;;;;;;5093975;28;20063;-73
2022/09/11 06:52:27;;;;;;;56.20;20.90;;;19.40;99.90;;;;;;5090616;28;20097;-74
2022/09/11 06:55:16;;;;;;;55.45;20.90;;;19.50;99.90;;;;;;5092877;28;20586;-73
2022/09/11 06:57:51;;;;;;;52.28;19.85;;;19.60;99.90;;;;;;5083607;28;20410;-73
2022/09/11 07:00:25;;;;;;;44.38;17.15;;;19.70;99.90;;;;;;5087345;28;20199;-73
2022/09/11 07:02:52;;;;;;;41.20;16.33;;;20.10;99.90;;;;;;5095634;28;20048;-73
2022/09/11 07:05:21;;;;;;;38.90;15.57;;;20.50;99.90;;;;;;5105735;28;20063;-73
2022/09/11 07:07:52;;;;;;;36.67;16.70;;;21.00;99.90;;;;;;5099621;28;20071;-73
2022/09/11 07:10:19;;;;;;;32.30;14.10;;;21.30;99.90;;;;;;5093390;28;20048;-73
2022/09/11 07:12:54;;;;;;;21.77;9.63;;;21.70;99.90;;;;;;5090526;28;20150;-73
2022/09/11 07:15:21;;;;;;;22.20;10.65;;;21.90;99.90;;;;;;5090247;28;20048;-74
2022/09/11 07:17:50;;;;;;;16.60;8.38;;;21.70;99.90;;;;;;5085355;28;20048;-73
2022/09/11 07:20:17;;;;;;;15.77;7.32;;;21.60;99.90;;;;;;5095288;28;20457;-73
2022/09/11 07:22:45;;;;;;;15.13;7.22;;;21.60;90.70;;;;;;5095125;28;20055;-73
2022/09/11 07:25:16;;;;;;;15.57;7.38;;;21.80;1.00;;;;;;5089611;28;20040;-74
2022/09/11 07:27:44;;;;;;;13.10;5.80;;;22.00;1.00;;;;;;5094044;28;20046;-73
2022/09/11 07:30:15;;;;;;;9.00;5.35;;;22.00;99.90;;;;;;5092169;28;20502;-74
2022/09/11 07:32:45;;;;;;;6.47;3.60;;;21.80;99.90;;;;;;5097439;28;20047;-75
2022/09/11 07:35:20;;;;;;;8.13;3.53;;;21.60;1.00;;;;;;5099144;28;20054;-74
2022/09/11 07:37:48;;;;;;;6.03;3.28;;;21.50;1.00;;;;;;5092334;28;20122;-75
2022/09/11 07:40:16;;;;;;;6.82;2.80;;;21.20;1.00;;;;;;5080794;28;20127;-74
2022/09/11 07:42:43;;;;;;;5.97;2.42;;;20.80;1.00;;;;;;5089649;28;20068;-75
2022/09/11 07:45:11;;;;;;;4.95;2.38;;;20.40;99.90;;;;;;5078783;28;20368;-74
2022/09/11 07:47:38;;;;;;;3.13;1.00;;;20.40;99.90;;;;;;5079056;28;20052;-73
2022/09/11 07:50:07;;;;;;;2.55;1.23;;;20.30;99.90;;;;;;5080225;28;20431;-73
2022/09/11 07:52:36;;;;;;;2.40;1.20;;;19.90;1.00;;;;;;5083497;28;20058;-74
2022/09/11 07:55:06;;;;;;;2.25;1.27;;;20.20;99.90;;;;;;5098280;28;20051;-74
2022/09/11 07:57:35;;;;;;;2.72;1.02;;;20.20;99.90;;;;;;5118355;28;20130;-73
2022/09/11 08:00:08;;;;;;;3.15;1.45;;;20.20;1.00;;;;;;5081316;28;20134;-74
2022/09/11 08:02:47;;;;;;;9.15;1.85;;;20.10;99.90;;;;;;5096676;28;20423;-75
2022/09/11 08:05:18;;;;;;;2.67;0.98;;;20.60;21.90;;;;;;5078638;28;20458;-74
2022/09/11 08:07:47;;;;;;;1.95;1.00;;;20.80;99.90;;;;;;5090997;28;20097;-75
2022/09/11 08:10:16;;;;;;;3.60;1.35;;;20.90;1.00;;;;;;5101060;28;20132;-75
2022/09/11 08:12:43;;;;;;;2.83;1.25;;;20.50;1.00;;;;;;5105085;28;20043;-74
2022/09/11 08:15:10;;;;;;;2.58;1.00;;;21.10;1.00;;;;;;5098902;28;20044;-75
2022/09/11 08:17:38;;;;;;;3.97;1.35;;;20.80;99.90;;;;;;5092473;28;20108;-74
2022/09/11 08:20:06;;;;;;;4.82;1.25;;;21.10;99.90;;;;;;5106800;28;20054;-74
2022/09/11 08:22:33;;;;;;;3.08;0.80;;;21.50;1.00;;;;;;5087637;28;20415;-74
2022/09/11 08:25:02;;;;;;;2.13;0.70;;;21.00;1.00;;;;;;5094501;28;20036;-74
2022/09/11 08:27:31;;;;;;;2.70;0.82;;;20.50;1.00;;;;;;5099021;28;20040;-74
2022/09/11 08:29:58;;;;;;;2.28;1.10;;;20.20;1.00;;;;;;5107605;28;20035;-74
2022/09/11 08:32:28;;;;;;;6.18;2.20;;;20.60;1.00;;;;;;5111664;28;20088;-76
2022/09/11 08:34:55;;;;;;;3.53;1.38;;;20.90;99.90;;;;;;5115170;28;20436;-75
2022/09/11 08:37:23;;;;;;;3.63;1.33;;;20.90;1.00;;;;;;5104467;28;20383;-73
2022/09/11 08:39:51;;;;;;;2.35;1.23;;;21.00;1.00;;;;;;5093681;28;20078;-74
2022/09/11 08:42:20;;;;;;;4.45;1.00;;;21.10;99.90;;;;;;5107305;28;20050;-73
2022/09/11 08:44:50;;;;;;;2.63;1.17;;;21.10;99.90;;;;;;5097715;28;20130;-73
2022/09/11 08:47:36;;;;;;;6.95;1.80;;;21.10;1.00;;;;;;5099087;28;20044;-73
2022/09/11 08:50:08;;;;;;;3.47;1.67;;;21.10;1.00;;;;;;5097706;28;20043;-73
2022/09/11 08:52:37;;;;;;;8.00;1.48;;;21.20;1.00;;;;;;5097512;28;20139;-73
2022/09/11 08:55:13;;;;;;;6.22;3.75;;;21.10;99.90;;;;;;5092073;28;20078;-74
2022/09/11 08:57:49;;;;;;;4.88;1.38;;;20.90;17.30;;;;;;5100207;28;20069;-73
2022/09/11 09:00:21;;;;;;;1.70;0.95;;;20.40;1.00;;;;;;5106030;28;20391;-73
2022/09/11 09:03:24;;;;;;;3.47;1.30;;;20.50;1.00;;;;;;5114293;28;20524;-73
2022/09/11 09:05:56;;;;;;;3.92;1.30;;;20.70;1.00;;;;;;5110890;28;20043;-73
2022/09/11 09:08:42;;;;;;;4.30;1.33;;;20.80;1.00;;;;;;5113104;28;20055;-73
2022/09/11 09:11:20;;;;;;;2.90;1.15;;;21.10;1.00;;;;;;5106447;28;20066;-72
2022/09/11 09:14:10;;;;;;;3.60;1.27;;;20.80;1.00;;;;;;5105700;28;20110;-72
2022/09/11 09:16:47;;;;;;;3.40;1.08;;;20.90;1.00;;;;;;5114509;28;20051;-72
2022/09/11 09:19:20;;;;;;;3.08;1.50;;;21.30;1.00;;;;;;5097673;28;20521;-73
2022/09/11 09:21:58;;;;;;;2.30;0.82;;;21.40;99.90;;;;;;5115298;28;20070;-72
2022/09/11 09:24:30;;;;;;;8.27;1.45;;;21.30;99.90;;;;;;5098918;28;20051;-74
2022/09/11 09:26:58;;;;;;;3.10;1.35;;;21.40;99.90;;;;;;5115330;28;20379;-73
2022/09/11 09:29:36;;;;;;;10.07;1.92;;;21.60;99.90;;;;;;5097026;28;20039;-73
2022/09/11 09:32:10;;;;;;;4.03;1.58;;;21.80;1.00;;;;;;5100998;28;20136;-73
2022/09/11 09:34:40;;;;;;;2.58;1.23;;;22.00;1.00;;;;;;5076439;28;20101;-73
2022/09/11 09:37:16;;;;;;;6.25;1.30;;;21.80;1.00;;;;;;5076565;28;20060;-73
2022/09/11 09:39:44;;;;;;;2.88;0.95;;;21.80;1.00;;;;;;5094574;28;20040;-73
2022/09/11 09:42:30;;;;;;;5.78;2.40;;;22.00;1.00;;;;;;5076493;28;20044;-73
2022/09/11 09:45:22;;;;;;;3.83;1.10;;;22.00;1.00;;;;;;5076722;28;20052;-72
2022/09/11 09:47:49;;;;;;;4.75;2.38;;;21.90;1.00;;;;;;5094702;28;20403;-72
2022/09/11 09:50:20;;;;;;;6.43;3.53;;;21.60;1.00;;;;;;5094697;28;20121;-73
2022/09/11 09:52:49;;;;;;;5.32;1.77;;;21.60;1.00;;;;;;5093990;28;20560;-75
2022/09/11 09:55:20;;;;;;;4.13;1.15;;;21.50;1.00;;;;;;5096709;28;20498;-75
2022/09/11 09:57:47;;;;;;;5.03;2.00;;;21.50;99.90;;;;;;5103260;28;20040;-75
2022/09/11 10:00:20;;;;;;;3.33;1.80;;;21.70;99.90;;;;;;5113080;28;20402;-74
2022/09/11 10:02:51;;;;;;;5.55;2.30;;;21.80;99.90;;;;;;5111509;28;20122;-75
2022/09/11 10:05:25;;;;;;;7.70;5.95;;;22.10;99.90;;;;;;5113443;28;20043;-75
2022/09/11 10:07:55;;;;;;;5.75;2.78;;;22.30;99.90;;;;;;5114365;28;20127;-75
2022/09/11 10:10:29;;;;;;;5.20;1.70;;;22.30;1.00;;;;;;5114218;28;20118;-75
2022/09/11 10:13:00;;;;;;;4.15;1.27;;;22.00;1.00;;;;;;5109651;28;20101;-75
2022/09/11 10:15:29;;;;;;;2.45;1.25;;;22.20;99.90;;;;;;5114315;28;20502;-74
2022/09/11 10:18:15;;;;;;;14.27;10.35;;;22.20;1.00;;;;;;5114335;28;20096;-77
2022/09/11 10:20:43;;;;;;;3.30;1.83;;;22.60;98.20;;;;;;5114367;28;20078;-75
2022/09/11 10:23:23;;;;;;;6.07;2.00;;;22.90;1.00;;;;;;5112634;28;20047;-74
2022/09/11 10:25:50;;;;;;;2.70;1.35;;;23.10;1.00;;;;;;5113625;28;20043;-74
2022/09/11 10:28:23;;;;;;;2.03;1.00;;;23.20;1.00;;;;;;5113766;28;20089;-75
2022/09/11 10:30:59;;;;;;;4.10;1.92;;;23.30;1.00;;;;;;5114574;28;20035;-75
2022/09/11 10:33:30;;;;;;;3.83;1.65;;;23.50;29.10;;;;;;5113510;28;20051;-74
2022/09/11 10:35:59;;;;;;;2.83;1.30;;;23.50;50.00;;;;;;5114228;28;20032;-75
2022/09/11 10:38:31;;;;;;;5.30;2.60;;;23.50;56.30;;;;;;5114181;28;20067;-75
2022/09/11 10:41:07;;;;;;;6.55;2.63;;;23.50;65.20;;;;;;5096104;28;20486;-75
2022/09/11 10:43:36;;;;;;;;;;;23.40;67.10;;;;;;5114156;28;20043;-75
2022/09/11 10:46:20;;;;;;;3.28;1.45;;;23.40;67.50;;;;;;5111619;28;20018;-75
2022/09/11 10:48:53;;;;;;;5.50;1.10;;;23.00;59.30;;;;;;5108318;28;20456;-75
2022/09/11 10:51:21;;;;;;;4.82;1.17;;;22.70;53.80;;;;;;5113619;28;20463;-75
2022/09/11 10:53:59;;;;;;;3.30;1.70;;;22.60;20.90;;;;;;5113318;28;20055;-75
2022/09/11 10:56:27;;;;;;;3.90;1.90;;;22.50;10.60;;;;;;5112623;28;20039;-75
2022/09/11 10:59:01;;;;;;;5.78;1.58;;;22.30;1.00;;;;;;5109273;28;20043;-75
2022/09/11 11:01:30;;;;;;;3.03;1.50;;;22.40;1.00;;;;;;5112035;28;20062;-76
2022/09/11 11:03:57;;;;;;;7.30;1.80;;;22.50;1.00;;;;;;5107650;28;20046;-76
2022/09/11 11:06:43;;;;;;;4.15;1.83;;;22.60;1.00;;;;;;5104789;28;20048;-76
2022/09/11 11:09:25;;;;;;;3.22;1.90;;;22.80;1.00;;;;;;5114388;28;20046;-76
2022/09/11 11:12:06;;;;;;;4.85;2.55;;;22.90;1.00;;;;;;5113958;28;20410;-78
2022/09/11 11:14:53;;;;;;;15.60;4.85;;;22.70;1.00;;;;;;5099406;28;20040;-76
2022/09/11 11:17:28;;;;;;;4.90;3.15;;;22.80;1.00;;;;;;5095628;28;20042;-76
2022/09/11 11:20:15;;;;;;;3.37;2.00;;;23.10;1.00;;;;;;5108645;28;20123;-75
2022/09/11 11:23:18;;;;;;;3.72;2.10;;;23.10;1.00;;;;;;5118451;28;20039;-75
2022/09/11 11:25:56;;;;;;;4.50;2.58;;;23.00;1.00;;;;;;5106586;28;20032;-76
2022/09/11 11:28:53;;;;;;;5.25;1.80;;;23.10;1.00;;;;;;5117700;28;20047;-76
2022/09/11 11:31:37;;;;;;;4.05;2.33;;;22.90;1.00;;;;;;5100300;28;20089;-76
2022/09/11 11:34:30;;;;;;;3.33;1.98;;;22.80;1.00;;;;;;5082363;28;20136;-75
2022/09/11 11:37:04;;;;;;;6.10;3.28;;;23.20;1.00;;;;;;5094984;28;20636;-76
2022/09/11 11:39:37;;;;;;;5.97;4.30;;;23.40;1.00;;;;;;5095153;28;20067;-76
2022/09/11 11:42:12;;;;;;;14.90;4.00;;;23.40;1.00;;;;;;5094741;28;20502;-76
2022/09/11 11:44:46;;;;;;;5.20;2.75;;;23.50;1.00;;;;;;5076789;28;20044;-75
2022/09/11 11:47:15;;;;;;;6.85;3.58;;;23.40;1.00;;;;;;5094547;28;20503;-76
2022/09/11 11:49:54;;;;;;;7.80;3.00;;;23.20;1.00;;;;;;5076841;28;20047;-75
2022/09/11 11:52:39;;;;;;;5.95;3.47;;;23.10;1.00;;;;;;5102633;28;20120;-75
2022/09/11 11:55:15;;;;;;;8.63;4.13;;;23.10;1.00;;;;;;5116813;28;20051;-76
2022/09/11 11:57:48;;;;;;;11.48;7.03;;;23.20;1.00;;;;;;5116925;28;20043;-75
2022/09/11 12:00:18;;;;;;;14.45;9.38;;;23.40;1.00;;;;;;5116942;28;20079;-76
2022/09/11 12:02:53;;;;;;;6.53;3.85;;;23.70;1.00;;;;;;5116685;28;20456;-75
2022/09/11 12:05:26;;;;;;;8.50;4.20;;;23.90;1.00;;;;;;5117109;28;20040;-73
2022/09/11 12:07:54;;;;;;;11.10;5.78;;;23.80;1.00;;;;;;5115495;28;20067;-74
2022/09/11 12:10:28;;;;;;;6.10;3.75;;;23.90;1.00;;;;;;5116674;28;20093;-75
2022/09/11 12:12:59;;;;;;;13.02;7.32;;;24.00;1.00;;;;;;5117045;28;20067;-76
2022/09/11 12:15:30;;;;;;;7.38;3.42;;;23.90;1.00;;;;;;5117785;27;20104;-75
2022/09/11 12:18:18;;;;;;;6.63;3.28;;;23.80;1.00;;;;;;5116693;28;20047;-75
2022/09/11 12:20:47;;;;;;;6.32;3.60;;;24.00;1.00;;;;;;5109713;28;20425;-76
2022/09/11 12:23:35;;;;;;;6.30;3.75;;;24.10;1.00;;;;;;5101401;28;20089;-75
2022/09/11 12:26:21;;;;;;;5.60;4.10;;;24.20;1.00;;;;;;5103736;28;20040;-75
2022/09/11 12:28:48;;;;;;;8.05;4.05;;;24.10;1.00;;;;;;5095177;28;20090;-75
2022/09/11 12:31:17;;;;;;;6.75;3.75;;;23.80;1.00;;;;;;5098222;28;20040;-75
2022/09/11 12:33:55;;;;;;;6.00;3.70;;;23.50;1.00;;;;;;5096907;28;20043;-75
2022/09/11 12:36:36;;;;;;;6.15;3.63;;;23.60;1.00;;;;;;5104548;28;20441;-75
2022/09/11 12:39:14;;;;;;;7.28;3.78;;;23.40;1.00;;;;;;5116490;28;20047;-75
2022/09/11 12:41:42;;;;;;;7.55;4.00;;;23.30;1.00;;;;;;5097879;28;20044;-75
2022/09/11 12:44:29;;;;;;;6.38;3.53;;;23.20;1.00;;;;;;5115975;28;20066;-75
2022/09/11 12:47:12;;;;;;;8.27;4.15;;;22.90;10.40;;;;;;5108643;28;20380;-76
2022/09/11 12:49:42;;;;;;;5.55;3.30;;;22.90;1.00;;;;;;5096045;28;20093;-73
2022/09/11 12:52:29;;;;;;;8.32;3.38;;;22.70;1.00;;;;;;5077497;28;20082;-75
2022/09/11 12:54:59;;;;;;;6.72;3.85;;;23.00;1.00;;;;;;5098751;28;20040;-74
2022/09/11 12:57:29;;;;;;;8.55;4.55;;;23.20;99.90;;;;;;5096551;28;20047;-75
2022/09/11 13:00:09;;;;;;;6.93;4.10;;;23.50;99.90;;;;;;5095727;28;20151;-75
2022/09/11 13:02:40;;;;;;;7.82;4.45;;;23.70;1.00;;;;;;5095721;28;20115;-74